createdAt,value
2018-03-16T00:00:49.582Z,5.40
2018-03-16T00:03:23.454Z,5.40
2018-03-16T00:05:57.869Z,5.30
2018-03-16T00:08:32.814Z,5.30
2018-03-16T00:11:06.818Z,5.30
2018-03-16T00:13:40.438Z,5.30
2018-03-16T00:16:14.390Z,5.30
2018-03-16T00:18:48.087Z,5.40
2018-03-16T00:21:21.902Z,5.40
2018-03-16T00:23:55.502Z,5.40
2018-03-16T00:26:30.274Z,5.40
2018-03-16T00:29:04.552Z,5.40
2018-03-16T00:31:38.493Z,5.40
2018-03-16T00:34:12.542Z,5.40
2018-03-16T00:36:46.485Z,5.30
2018-03-16T00:39:20.681Z,5.40
2018-03-16T00:41:54.467Z,5.40
2018-03-16T00:44:28.525Z,5.40
2018-03-16T00:47:02.638Z,5.40
2018-03-16T00:49:36.452Z,5.30
2018-03-16T00:52:10.131Z,5.30
2018-03-16T00:54:43.826Z,5.30
2018-03-16T00:57:17.610Z,5.30
2018-03-16T00:59:51.338Z,5.30
2018-03-16T01:02:25.041Z,5.30
2018-03-16T01:04:59.500Z,5.30
2018-03-16T01:07:33.354Z,5.20
2018-03-16T01:10:07.905Z,5.20
2018-03-16T01:15:22.658Z,5.20
2018-03-16T01:17:57.102Z,5.20
2018-03-16T01:20:36.941Z,5.20
2018-03-16T01:23:11.813Z,5.30
2018-03-16T01:25:45.657Z,5.20
2018-03-16T01:28:19.421Z,5.30
2018-03-16T01:30:53.950Z,5.20
2018-03-16T01:33:27.992Z,5.20
2018-03-16T01:36:02.895Z,5.20
2018-03-16T01:38:37.638Z,5.20
2018-03-16T01:41:11.656Z,5.20
2018-03-16T01:43:45.771Z,5.10
2018-03-16T01:46:19.862Z,5.10
2018-03-16T01:48:54.470Z,5.20
2018-03-16T01:51:28.568Z,5.10
2018-03-16T01:54:02.679Z,5.20
2018-03-16T01:56:36.663Z,5.30
2018-03-16T01:59:10.627Z,5.30
2018-03-16T02:01:44.630Z,5.30
2018-03-16T02:04:18.930Z,5.20
2018-03-16T02:06:52.909Z,5.20
2018-03-16T02:09:26.560Z,5.10
2018-03-16T02:12:00.408Z,5.10
2018-03-16T02:14:34.857Z,5.10
2018-03-16T02:17:09.042Z,5.10
2018-03-16T02:19:42.649Z,5.10
2018-03-16T02:22:17.239Z,5.10
2018-03-16T02:24:51.321Z,5.10
2018-03-16T02:27:25.872Z,5.10
2018-03-16T02:29:59.810Z,5.10
2018-03-16T02:32:34.398Z,5.00
2018-03-16T02:35:08.486Z,5.00
2018-03-16T02:37:42.227Z,5.00
2018-03-16T02:40:16.052Z,5.00
2018-03-16T02:42:49.668Z,5.00
2018-03-16T02:45:23.606Z,5.00
2018-03-16T02:47:57.238Z,4.90
2018-03-16T02:50:31.431Z,4.90
2018-03-16T02:53:05.159Z,4.80
2018-03-16T02:55:39.195Z,4.80
2018-03-16T02:58:13.109Z,4.80
2018-03-16T03:00:48.842Z,4.80
2018-03-16T03:03:23.311Z,4.80
2018-03-16T03:05:57.980Z,4.80
2018-03-16T03:08:31.995Z,4.70
2018-03-16T03:11:05.955Z,4.80
2018-03-16T03:13:40.586Z,4.80
2018-03-16T03:16:14.631Z,4.70
2018-03-16T03:18:49.261Z,4.70
2018-03-16T03:21:23.275Z,4.70
2018-03-16T03:23:57.110Z,4.70
2018-03-16T03:26:30.942Z,4.70
2018-03-16T03:29:04.716Z,4.70
2018-03-16T03:31:38.330Z,4.80
2018-03-16T03:34:12.816Z,4.80
2018-03-16T03:36:46.984Z,4.80
2018-03-16T03:39:20.761Z,4.80
2018-03-16T03:41:54.438Z,4.70
2018-03-16T03:44:28.485Z,4.70
2018-03-16T03:47:02.216Z,4.70
2018-03-16T03:49:35.939Z,4.70
2018-03-16T03:52:10.471Z,4.60
2018-03-16T03:54:44.513Z,4.60
2018-03-16T03:57:18.154Z,4.50
2018-03-16T03:59:52.108Z,4.50
2018-03-16T04:02:26.143Z,4.50
2018-03-16T04:04:59.915Z,4.50
2018-03-16T04:07:33.788Z,4.50
2018-03-16T04:10:07.664Z,4.50
2018-03-16T04:12:41.586Z,4.50
2018-03-16T04:15:16.327Z,4.50
2018-03-16T04:17:50.774Z,4.50
2018-03-16T04:20:24.821Z,4.40
2018-03-16T04:22:59.393Z,4.40
2018-03-16T04:25:33.315Z,4.40
2018-03-16T04:28:07.050Z,4.40
2018-03-16T04:30:40.845Z,4.40
2018-03-16T04:33:14.553Z,4.40
2018-03-16T04:35:48.415Z,4.40
2018-03-16T04:38:22.151Z,4.40
2018-03-16T04:40:56.797Z,4.50
2018-03-16T04:43:30.627Z,4.40
2018-03-16T04:46:04.436Z,4.40
2018-03-16T04:48:38.245Z,4.40
2018-03-16T04:51:12.217Z,4.30
2018-03-16T04:53:45.818Z,4.30
2018-03-16T04:56:19.396Z,4.40
2018-03-16T04:58:53.145Z,4.40
2018-03-16T05:01:27.537Z,4.30
2018-03-16T05:04:01.669Z,4.30
2018-03-16T05:06:35.553Z,4.30
2018-03-16T05:09:09.882Z,4.30
2018-03-16T05:11:44.851Z,4.30
2018-03-16T05:14:19.748Z,4.30
2018-03-16T05:16:54.771Z,4.30
2018-03-16T05:19:29.202Z,4.30
2018-03-16T05:22:03.335Z,4.30
2018-03-16T05:24:37.575Z,4.30
2018-03-16T05:27:12.118Z,4.20
2018-03-16T05:29:47.156Z,4.20
2018-03-16T05:32:21.350Z,4.10
2018-03-16T05:34:54.958Z,4.10
2018-03-16T05:37:30.213Z,4.10
2018-03-16T05:40:04.071Z,4.00
2018-03-16T05:42:37.623Z,4.10
2018-03-16T05:45:11.403Z,4.10
2018-03-16T05:47:44.994Z,4.10
2018-03-16T05:50:18.795Z,4.00
2018-03-16T05:52:52.646Z,4.00
2018-03-16T05:55:27.178Z,3.90
2018-03-16T05:58:01.203Z,3.90
2018-03-16T06:00:34.858Z,3.90
2018-03-16T06:03:08.602Z,3.90
2018-03-16T06:05:43.035Z,3.90
2018-03-16T06:08:16.979Z,3.90
2018-03-16T06:10:51.162Z,3.90
2018-03-16T06:13:25.843Z,3.90
2018-03-16T06:16:00.097Z,3.80
2018-03-16T06:18:34.522Z,3.90
2018-03-16T06:21:09.209Z,3.80
2018-03-16T06:23:43.522Z,3.80
2018-03-16T06:26:17.224Z,3.80
2018-03-16T06:28:51.890Z,3.80
2018-03-16T06:31:26.989Z,3.70
2018-03-16T06:34:01.246Z,3.70
2018-03-16T06:36:35.097Z,3.60
2018-03-16T06:39:08.750Z,3.60
2018-03-16T06:41:42.594Z,3.60
2018-03-16T06:44:16.677Z,3.60
2018-03-16T06:46:50.475Z,7.20
2018-03-16T06:49:24.243Z,3.50
2018-03-16T06:51:58.695Z,3.60
2018-03-16T06:54:33.538Z,3.60
2018-03-16T06:57:07.588Z,3.60
2018-03-16T06:59:41.227Z,3.60
2018-03-16T07:02:15.177Z,3.60
2018-03-16T07:04:50.289Z,3.60
2018-03-16T07:07:23.875Z,3.60
2018-03-16T07:09:57.741Z,3.60
2018-03-16T07:12:31.494Z,3.50
2018-03-16T07:15:17.134Z,3.50
2018-03-16T07:17:50.875Z,3.50
2018-03-16T07:20:24.782Z,3.50
2018-03-16T07:22:59.414Z,3.60
2018-03-16T07:25:34.146Z,3.60
2018-03-16T07:28:07.942Z,3.60
2018-03-16T07:30:42.491Z,3.60
2018-03-16T07:33:16.594Z,3.60
2018-03-16T07:35:50.396Z,3.70
2018-03-16T07:38:25.063Z,3.70
2018-03-16T07:40:59.165Z,3.70
2018-03-16T07:43:33.385Z,3.70
2018-03-16T07:46:14.029Z,3.70
2018-03-16T07:48:48.250Z,3.60
2018-03-16T07:51:21.897Z,3.50
2018-03-16T07:53:56.663Z,3.40
2018-03-16T07:56:31.532Z,3.30
2018-03-16T07:59:06.109Z,3.20
2018-03-16T08:01:40.091Z,3.20
2018-03-16T08:04:14.758Z,3.30
2018-03-16T08:06:48.853Z,3.30
2018-03-16T08:09:23.639Z,3.20
2018-03-16T08:11:58.208Z,3.10
2018-03-16T08:14:32.129Z,3.10
2018-03-16T08:17:06.626Z,3.10
2018-03-16T08:19:40.582Z,3.10
2018-03-16T08:22:15.023Z,3.10
2018-03-16T08:24:49.093Z,3.20
2018-03-16T08:27:22.727Z,3.20
2018-03-16T08:29:56.383Z,3.20
2018-03-16T08:32:30.238Z,3.10
2018-03-16T08:35:03.906Z,3.10
2018-03-16T08:37:37.469Z,3.00
2018-03-16T08:40:11.320Z,2.80
2018-03-16T08:42:45.545Z,2.80
2018-03-16T08:45:20.747Z,2.90
2018-03-16T08:47:54.844Z,2.90
2018-03-16T08:50:28.675Z,2.80
2018-03-16T08:53:02.403Z,2.80
2018-03-16T08:55:36.240Z,2.80
2018-03-16T08:58:09.955Z,2.80
2018-03-16T09:00:43.686Z,2.80
2018-03-16T09:03:17.487Z,2.70
2018-03-16T09:05:52.033Z,2.50
2018-03-16T09:08:26.107Z,2.50
2018-03-16T09:10:59.829Z,2.50
2018-03-16T09:13:33.694Z,2.50
2018-03-16T09:16:08.179Z,2.20
2018-03-16T09:18:42.164Z,2.20
2018-03-16T09:21:15.945Z,1.90
2018-03-16T09:23:49.793Z,1.90
2018-03-16T09:26:23.618Z,1.80
2018-03-16T09:28:58.094Z,1.80
2018-03-16T09:31:32.139Z,1.80
2018-03-16T09:34:05.842Z,1.80
2018-03-16T09:36:40.348Z,1.80
2018-03-16T09:39:14.285Z,1.80
2018-03-16T09:41:47.952Z,1.80
2018-03-16T09:44:21.892Z,1.70
2018-03-16T09:46:55.661Z,1.60
2018-03-16T09:49:29.602Z,1.70
2018-03-16T09:52:03.521Z,1.60
2018-03-16T09:54:48.976Z,1.60
2018-03-16T09:57:22.931Z,1.80
2018-03-16T09:59:56.647Z,1.80
2018-03-16T10:02:31.193Z,1.70
2018-03-16T10:05:05.352Z,1.70
2018-03-16T10:07:39.037Z,1.60
2018-03-16T10:10:12.898Z,1.70
2018-03-16T10:12:46.646Z,1.60
2018-03-16T10:15:21.358Z,1.60
2018-03-16T10:17:55.271Z,1.60
2018-03-16T10:20:29.112Z,1.60
2018-03-16T10:23:03.102Z,1.60
2018-03-16T10:25:36.819Z,1.60
2018-03-16T10:28:11.423Z,1.60
2018-03-16T10:30:45.514Z,1.60
2018-03-16T10:33:19.056Z,1.60
2018-03-16T10:35:54.218Z,1.60
2018-03-16T10:38:28.673Z,1.60
2018-03-16T10:41:02.755Z,1.60
2018-03-16T10:43:36.490Z,1.70
2018-03-16T10:46:10.416Z,1.70
2018-03-16T10:48:45.749Z,1.80
2018-03-16T10:51:20.233Z,1.80
2018-03-16T10:53:53.833Z,1.70
2018-03-16T10:56:28.411Z,1.60
2018-03-16T10:59:02.403Z,1.60
2018-03-16T11:01:41.951Z,1.50
2018-03-16T11:04:15.803Z,1.50
2018-03-16T11:06:53.333Z,1.50
2018-03-16T11:09:27.600Z,1.60
2018-03-16T11:12:01.639Z,1.60
2018-03-16T11:14:35.498Z,1.60
2018-03-16T11:17:09.081Z,1.50
2018-03-16T11:19:43.001Z,1.60
2018-03-16T11:22:16.893Z,1.60
2018-03-16T11:24:52.270Z,1.70
2018-03-16T11:27:26.229Z,1.70
2018-03-16T11:30:00.198Z,1.80
2018-03-16T11:32:34.683Z,1.90
2018-03-16T11:35:08.657Z,1.90
2018-03-16T11:37:42.325Z,1.90
2018-03-16T11:40:16.124Z,1.80
2018-03-16T11:42:49.865Z,1.80
2018-03-16T11:45:23.620Z,1.90
2018-03-16T11:47:57.301Z,1.90
2018-03-16T11:50:31.148Z,2.00
2018-03-16T11:53:05.056Z,1.90
2018-03-16T11:55:38.769Z,2.00
2018-03-16T11:58:12.606Z,1.90
2018-03-16T12:00:46.278Z,2.00
2018-03-16T12:03:20.006Z,2.00
2018-03-16T12:05:53.909Z,1.90
2018-03-16T12:08:27.693Z,1.90
2018-03-16T12:11:02.472Z,1.90
2018-03-16T12:13:36.593Z,1.90
2018-03-16T12:16:10.293Z,1.90
2018-03-16T12:18:44.955Z,2.00
2018-03-16T12:21:19.425Z,2.00
2018-03-16T12:23:53.575Z,2.00
2018-03-16T12:26:28.721Z,1.80
2018-03-16T12:29:03.126Z,1.90
2018-03-16T12:31:36.952Z,1.80
2018-03-16T12:34:11.844Z,1.80
2018-03-16T12:36:45.988Z,1.80
2018-03-16T12:39:19.786Z,1.80
2018-03-16T12:41:53.546Z,1.80
2018-03-16T12:44:27.934Z,1.80
2018-03-16T12:47:02.825Z,1.90
2018-03-16T12:49:36.653Z,1.90
2018-03-16T12:52:11.262Z,1.90
2018-03-16T12:54:45.265Z,1.90
2018-03-16T12:57:18.991Z,1.90
2018-03-16T12:59:52.676Z,5.00
2018-03-16T13:02:27.269Z,1.80
2018-03-16T13:05:01.890Z,1.90
2018-03-16T13:07:36.546Z,2.00
2018-03-16T13:10:10.654Z,1.90
2018-03-16T13:12:44.304Z,1.90
2018-03-16T13:15:19.843Z,2.00
2018-03-16T13:17:55.063Z,1.90
2018-03-16T13:20:28.845Z,1.90
2018-03-16T13:23:03.354Z,1.80
2018-03-16T13:25:37.511Z,1.80
2018-03-16T13:28:11.897Z,1.70
2018-03-16T13:30:45.958Z,1.70
2018-03-16T13:33:20.565Z,1.50
2018-03-16T13:35:54.561Z,1.50
2018-03-16T13:38:28.274Z,1.60
2018-03-16T13:41:02.083Z,1.60
2018-03-16T13:43:35.832Z,1.60
2018-03-16T13:46:10.586Z,1.60
2018-03-16T13:48:44.704Z,1.60
2018-03-16T13:51:18.650Z,1.60
2018-03-16T13:53:53.337Z,1.40
2018-03-16T13:56:27.262Z,1.40
2018-03-16T13:59:01.762Z,1.40
2018-03-16T14:01:35.688Z,1.40
2018-03-16T14:04:10.208Z,1.40
2018-03-16T14:06:45.095Z,1.40
2018-03-16T14:09:20.485Z,1.30
2018-03-16T14:11:54.498Z,1.30
2018-03-16T14:14:28.440Z,1.40
2018-03-16T14:17:02.177Z,1.40
2018-03-16T14:19:36.048Z,1.30
2018-03-16T14:22:10.433Z,1.40
2018-03-16T14:24:44.389Z,1.40
2018-03-16T14:27:18.178Z,1.40
2018-03-16T14:29:51.856Z,1.40
2018-03-16T14:32:25.660Z,1.00
2018-03-16T14:34:59.454Z,1.10
2018-03-16T14:37:33.390Z,1.00
2018-03-16T14:40:07.192Z,1.00
2018-03-16T14:42:40.889Z,1.00
2018-03-16T14:45:14.590Z,0.80
2018-03-16T14:47:48.466Z,0.80
2018-03-16T14:50:23.131Z,0.80
2018-03-16T14:52:57.838Z,0.80
2018-03-16T14:55:32.646Z,0.80
2018-03-16T14:58:06.837Z,0.90
2018-03-16T15:00:40.821Z,0.90
2018-03-16T15:03:14.793Z,0.90
2018-03-16T15:05:48.796Z,4.40
2018-03-16T15:08:23.234Z,0.80
2018-03-16T15:10:57.356Z,0.80
2018-03-16T15:13:32.806Z,0.80
2018-03-16T15:16:07.809Z,0.80
2018-03-16T15:18:41.934Z,0.80
2018-03-16T15:21:15.842Z,0.80
2018-03-16T15:23:51.099Z,0.80
2018-03-16T15:26:25.305Z,0.90
2018-03-16T15:28:59.818Z,0.90
2018-03-16T15:31:33.964Z,0.90
2018-03-16T15:34:07.794Z,0.90
2018-03-16T15:36:42.382Z,0.70
2018-03-16T15:39:16.409Z,0.60
2018-03-16T15:41:50.817Z,0.60
2018-03-16T15:44:24.886Z,0.50
2018-03-16T15:46:58.834Z,0.60
2018-03-16T15:49:32.447Z,0.60
2018-03-16T15:52:06.246Z,0.60
2018-03-16T15:54:40.130Z,0.50
2018-03-16T15:57:14.802Z,0.50
2018-03-16T15:59:49.470Z,0.50
2018-03-16T16:02:23.438Z,0.50
2018-03-16T16:04:57.878Z,0.50
2018-03-16T16:07:31.902Z,0.50
2018-03-16T16:10:06.439Z,0.60
2018-03-16T16:12:41.581Z,0.60
2018-03-16T16:15:15.493Z,0.60
2018-03-16T16:17:49.652Z,0.60
2018-03-16T16:20:24.254Z,0.50
2018-03-16T16:22:58.257Z,0.50
2018-03-16T16:25:32.005Z,0.50
2018-03-16T16:28:06.681Z,0.50
2018-03-16T16:30:40.619Z,0.40
2018-03-16T16:33:14.671Z,0.40
2018-03-16T16:35:48.300Z,0.40
2018-03-16T16:38:22.194Z,0.40
2018-03-16T16:40:56.698Z,0.30
2018-03-16T16:43:30.865Z,0.30
2018-03-16T16:46:04.536Z,0.30
2018-03-16T16:48:38.934Z,0.40
2018-03-16T16:51:13.510Z,0.40
2018-03-16T16:53:47.724Z,0.50
2018-03-16T16:56:21.654Z,0.50
2018-03-16T16:58:55.948Z,0.50
2018-03-16T17:01:30.663Z,0.60
2018-03-16T17:04:05.581Z,0.60
2018-03-16T17:06:40.421Z,0.60
2018-03-16T17:09:14.740Z,0.60
2018-03-16T17:11:48.731Z,0.50
2018-03-16T17:14:23.268Z,0.50
2018-03-16T17:16:57.336Z,0.50
2018-03-16T17:19:31.691Z,0.40
2018-03-16T17:22:05.743Z,0.40
2018-03-16T17:24:40.010Z,0.40
2018-03-16T17:27:15.076Z,0.30
2018-03-16T17:29:49.976Z,0.30
2018-03-16T17:32:24.761Z,0.20
2018-03-16T17:34:58.765Z,0.30
2018-03-16T17:37:32.664Z,0.30
2018-03-16T17:40:07.334Z,0.20
2018-03-16T17:42:41.890Z,0.20
2018-03-16T17:45:16.741Z,0.20
2018-03-16T17:47:50.956Z,0.10
2018-03-16T17:50:24.755Z,0.10
2018-03-16T17:52:59.346Z,0.10
2018-03-16T17:55:33.300Z,0.00
2018-03-16T17:58:07.227Z,0.00
2018-03-16T18:00:41.185Z,0.00
2018-03-16T18:03:15.722Z,0.00
2018-03-16T18:05:50.314Z,-0.10
2018-03-16T18:08:24.554Z,-0.10
2018-03-16T18:10:58.570Z,-0.10
2018-03-16T18:13:32.570Z,-0.10
2018-03-16T18:16:06.207Z,-0.10
2018-03-16T18:18:40.152Z,-0.10
2018-03-16T18:21:14.201Z,-0.10
2018-03-16T18:23:48.058Z,-0.10
2018-03-16T18:26:22.544Z,-0.10
2018-03-16T18:28:56.484Z,-0.10
2018-03-16T18:31:30.230Z,-0.10
2018-03-16T18:34:05.643Z,-0.10
2018-03-16T18:36:39.835Z,-0.10
2018-03-16T18:39:13.674Z,-0.10
2018-03-16T18:41:47.437Z,0.00
2018-03-16T18:44:21.171Z,-0.10
2018-03-16T18:46:55.009Z,-0.10
2018-03-16T18:49:28.939Z,0.00
2018-03-16T18:52:02.908Z,-0.10
2018-03-16T18:54:37.355Z,-0.10
2018-03-16T18:57:11.532Z,-0.20
2018-03-16T18:59:45.288Z,-0.10
2018-03-16T19:02:19.057Z,-0.20
2018-03-16T19:04:52.817Z,-0.20
2018-03-16T19:07:26.609Z,-0.20
2018-03-16T19:10:00.431Z,-0.20
2018-03-16T19:12:34.090Z,-0.20
2018-03-16T19:15:07.831Z,-0.20
2018-03-16T19:17:41.571Z,-0.20
2018-03-16T19:20:15.993Z,-0.30
2018-03-16T19:22:50.282Z,-0.30
2018-03-16T19:25:24.397Z,3.70
2018-03-16T19:27:58.457Z,-0.30
2018-03-16T19:30:32.967Z,-0.30
2018-03-16T19:33:07.214Z,-0.30
2018-03-16T19:35:41.237Z,-0.30
2018-03-16T19:38:15.847Z,-0.40
2018-03-16T19:40:49.763Z,-0.40
2018-03-16T19:43:23.815Z,-0.40
2018-03-16T19:45:59.219Z,-0.40
2018-03-16T19:48:33.577Z,-0.40
2018-03-16T19:51:07.371Z,-0.40
2018-03-16T19:53:41.101Z,-0.30
2018-03-16T19:56:14.843Z,-0.30
2018-03-16T19:58:49.523Z,-0.30
2018-03-16T20:01:24.300Z,-0.30
2018-03-16T20:03:58.421Z,-0.30
2018-03-16T20:06:32.164Z,-0.20
2018-03-16T20:09:06.027Z,-0.30
2018-03-16T20:11:39.889Z,-0.30
2018-03-16T20:14:14.707Z,-0.30
2018-03-16T20:16:48.697Z,-0.20
2018-03-16T20:19:22.463Z,-0.30
2018-03-16T20:21:56.390Z,-0.30
2018-03-16T20:24:30.431Z,-0.30
2018-03-16T20:27:04.330Z,-0.30
2018-03-16T20:29:38.946Z,-0.30
2018-03-16T20:32:13.146Z,-0.30
2018-03-16T20:34:46.845Z,-0.20
2018-03-16T20:37:20.735Z,-0.20
2018-03-16T20:39:54.487Z,-0.20
2018-03-16T20:42:28.222Z,-0.20
2018-03-16T20:45:02.822Z,-0.20
2018-03-16T20:47:36.650Z,-0.10
2018-03-16T20:50:10.553Z,-0.20
2018-03-16T20:52:44.175Z,-0.20
2018-03-16T20:55:18.786Z,-0.30
2018-03-16T20:57:52.637Z,-0.30
2018-03-16T21:00:27.147Z,-0.40
2018-03-16T21:03:01.173Z,-0.40
2018-03-16T21:05:35.007Z,-0.40
2018-03-16T21:08:08.774Z,-0.40
2018-03-16T21:10:42.710Z,-0.40
2018-03-16T21:13:16.580Z,-0.50
2018-03-16T21:15:51.078Z,-0.50
2018-03-16T21:18:25.060Z,-0.60
2018-03-16T21:20:58.734Z,-0.50
2018-03-16T21:23:32.695Z,-0.50
2018-03-16T21:26:06.574Z,-0.50
2018-03-16T21:28:40.270Z,-0.50
2018-03-16T21:31:14.003Z,-0.40
2018-03-16T21:33:48.173Z,-0.50
2018-03-16T21:36:22.547Z,-0.60
2018-03-16T21:38:57.735Z,-0.70
2018-03-16T21:41:32.205Z,-0.70
2018-03-16T21:44:07.294Z,-0.80
2018-03-16T21:46:41.197Z,-0.80
2018-03-16T21:49:14.896Z,-0.70
2018-03-16T21:51:48.674Z,-0.80
2018-03-16T21:54:23.191Z,-0.80
2018-03-16T21:56:57.555Z,-0.80
2018-03-16T21:59:31.602Z,-0.90
2018-03-16T22:02:05.959Z,-0.90
2018-03-16T22:04:39.917Z,-0.90
2018-03-16T22:07:13.810Z,-0.80
2018-03-16T22:09:48.423Z,-0.70
2018-03-16T22:12:22.421Z,-0.70
2018-03-16T22:14:56.958Z,-0.60
2018-03-16T22:17:31.661Z,-0.60
2018-03-16T22:20:05.806Z,-0.60
2018-03-16T22:22:39.543Z,-0.60
2018-03-16T22:25:13.321Z,-0.70
2018-03-16T22:27:47.687Z,-0.80
2018-03-16T22:30:21.724Z,-0.80
2018-03-16T22:32:56.202Z,-0.90
2018-03-16T22:35:31.005Z,-1.00
2018-03-16T22:38:05.301Z,-1.00
2018-03-16T22:40:39.087Z,-1.10
2018-03-16T22:43:13.787Z,-1.10
2018-03-16T22:45:48.000Z,-1.20
2018-03-16T22:48:22.350Z,-1.20
2018-03-16T22:50:55.959Z,-1.30
2018-03-16T22:53:30.663Z,-1.30
2018-03-16T22:56:04.937Z,-1.40
2018-03-16T22:58:38.805Z,-1.40
2018-03-16T23:01:13.605Z,-1.50
2018-03-16T23:03:47.636Z,-1.50
2018-03-16T23:06:21.675Z,-1.40
2018-03-16T23:08:55.966Z,-1.40
2018-03-16T23:11:30.087Z,-1.40
2018-03-16T23:14:04.006Z,-1.40
2018-03-16T23:16:38.587Z,-1.40
2018-03-16T23:19:13.494Z,-1.40
2018-03-16T23:21:47.647Z,-1.40
2018-03-16T23:24:21.339Z,-1.40
2018-03-16T23:26:55.238Z,-1.30
2018-03-16T23:29:29.762Z,-1.50
2018-03-16T23:32:03.898Z,-1.50
2018-03-16T23:34:37.678Z,-1.50
2018-03-16T23:37:12.240Z,-1.40
2018-03-16T23:39:46.130Z,-1.40
2018-03-16T23:42:19.777Z,-1.40
2018-03-16T23:44:53.409Z,-1.40
2018-03-16T23:47:27.278Z,-1.40
2018-03-16T23:50:01.902Z,-1.40
2018-03-16T23:52:36.596Z,-1.40
2018-03-16T23:55:10.635Z,-1.40
2018-03-16T23:57:45.103Z,-1.40
